createdAt,value
2023-03-29T00:00:15.921Z,96099.45
2023-03-29T00:03:04.668Z,96099.67
2023-03-29T00:05:37.928Z,96097.52
2023-03-29T00:08:09.724Z,96097.23
2023-03-29T00:10:38.426Z,96098.44
2023-03-29T00:13:07.474Z,96096.94
2023-03-29T00:15:38.123Z,96100.02
2023-03-29T00:18:06.498Z,96105.64
2023-03-29T00:20:36.708Z,96109.02
2023-03-29T00:23:06.449Z,96112.94
2023-03-29T00:25:56.696Z,96109.21
2023-03-29T00:28:46.658Z,96111.05
2023-03-29T00:31:18.250Z,96106.27
2023-03-29T00:33:48.115Z,96103.86
2023-03-29T00:36:22.677Z,96108.20
2023-03-29T00:39:08.916Z,96106.92
2023-03-29T00:41:41.806Z,96102.59
2023-03-29T00:45:04.639Z,96106.05
2023-03-29T00:48:03.957Z,96102.45
2023-03-29T00:51:02.282Z,96103.91
2023-03-29T00:53:39.823Z,96108.42
2023-03-29T00:56:18.127Z,96111.92
2023-03-29T00:59:06.078Z,96114.23
2023-03-29T01:01:49.252Z,96114.05
2023-03-29T01:04:42.784Z,96116.29
2023-03-29T01:07:22.936Z,96117.82
2023-03-29T01:10:00.010Z,96119.88
2023-03-29T01:12:36.236Z,96122.45
2023-03-29T01:15:14.307Z,96127.06
2023-03-29T01:18:06.719Z,96128.65
2023-03-29T01:20:51.006Z,96123.95
2023-03-29T01:23:39.645Z,96125.00
2023-03-29T01:26:34.303Z,96125.58
2023-03-29T01:29:36.626Z,96124.50
2023-03-29T01:32:14.620Z,96125.43
2023-03-29T01:34:52.643Z,96120.75
2023-03-29T01:37:33.039Z,96123.68
2023-03-29T01:40:01.611Z,96127.62
2023-03-29T01:42:50.385Z,96131.86
2023-03-29T01:45:57.556Z,96128.98
2023-03-29T01:48:41.312Z,96130.84
2023-03-29T01:51:42.282Z,96133.73
2023-03-29T01:54:26.343Z,96132.03
2023-03-29T01:56:58.133Z,96130.84
2023-03-29T01:59:32.518Z,96130.68
2023-03-29T02:02:28.005Z,96133.06
2023-03-29T02:04:59.482Z,96134.11
2023-03-29T02:07:37.481Z,96135.14
2023-03-29T02:10:08.504Z,96132.95
2023-03-29T02:12:37.495Z,96132.27
2023-03-29T02:15:12.372Z,96132.45
2023-03-29T02:17:48.944Z,96135.02
2023-03-29T02:20:41.605Z,96137.75
2023-03-29T02:23:24.167Z,96136.95
2023-03-29T02:25:54.011Z,96139.20
2023-03-29T02:28:25.440Z,96138.23
2023-03-29T02:30:56.403Z,96139.29
2023-03-29T02:33:42.265Z,96139.01
2023-03-29T02:36:19.047Z,96143.64
2023-03-29T02:38:48.792Z,96144.86
2023-03-29T02:41:18.217Z,96148.10
2023-03-29T02:43:48.629Z,96149.14
2023-03-29T02:46:19.997Z,96154.73
2023-03-29T02:48:52.114Z,96157.61
2023-03-29T02:51:33.493Z,96159.48
2023-03-29T02:54:13.029Z,96158.46
2023-03-29T02:56:48.849Z,96159.12
2023-03-29T02:59:26.022Z,96165.38
2023-03-29T03:01:55.369Z,96170.48
2023-03-29T03:04:26.102Z,96170.30
2023-03-29T03:06:54.952Z,96166.41
2023-03-29T03:09:23.727Z,96169.59
2023-03-29T03:11:54.134Z,96170.04
2023-03-29T03:14:22.962Z,96168.11
2023-03-29T03:16:53.711Z,96174.23
2023-03-29T03:19:21.984Z,96171.16
2023-03-29T03:21:52.002Z,96175.20
2023-03-29T03:24:20.235Z,96175.87
2023-03-29T03:26:48.624Z,96178.05
2023-03-29T03:29:17.208Z,96179.23
2023-03-29T03:32:04.460Z,96177.84
2023-03-29T03:35:03.097Z,96179.70
2023-03-29T03:37:32.709Z,96186.02
2023-03-29T03:40:02.004Z,96192.15
2023-03-29T03:42:31.645Z,96197.44
2023-03-29T03:45:00.017Z,96199.17
2023-03-29T03:47:52.569Z,96203.97
2023-03-29T03:50:55.851Z,96204.88
2023-03-29T03:53:29.686Z,96205.27
2023-03-29T03:56:24.639Z,96210.05
2023-03-29T03:59:17.545Z,96213.48
2023-03-29T04:01:55.094Z,96217.08
2023-03-29T04:04:25.023Z,96220.52
2023-03-29T04:07:13.287Z,96222.27
2023-03-29T04:10:00.663Z,96226.05
2023-03-29T04:12:54.572Z,96229.88
2023-03-29T04:15:23.592Z,96228.93
2023-03-29T04:18:01.860Z,96231.05
2023-03-29T04:20:37.961Z,96232.81
2023-03-29T04:23:06.355Z,96234.73
2023-03-29T04:25:37.293Z,96236.19
2023-03-29T04:28:05.938Z,96236.77
2023-03-29T04:31:00.094Z,96239.89
2023-03-29T04:33:47.736Z,96241.14
2023-03-29T04:36:16.690Z,96242.54
2023-03-29T04:38:47.692Z,96249.52
2023-03-29T04:41:18.142Z,96254.13
2023-03-29T04:44:21.873Z,96254.84
2023-03-29T04:46:50.656Z,96263.83
2023-03-29T04:49:26.162Z,96267.23
2023-03-29T04:51:56.463Z,96267.70
2023-03-29T04:54:27.947Z,96267.36
2023-03-29T04:57:22.123Z,96273.11
2023-03-29T05:00:35.958Z,96274.60
2023-03-29T05:03:27.256Z,96277.23
2023-03-29T05:06:22.874Z,96282.07
2023-03-29T05:09:19.856Z,96283.83
2023-03-29T05:12:10.343Z,96284.55
2023-03-29T05:15:05.442Z,96287.66
2023-03-29T05:17:42.440Z,96294.18
2023-03-29T05:20:13.229Z,96294.44
2023-03-29T05:22:42.800Z,96294.34
2023-03-29T05:25:19.817Z,96294.27
2023-03-29T05:27:48.210Z,96294.67
2023-03-29T05:30:19.184Z,96294.92
2023-03-29T05:33:02.559Z,96295.54
2023-03-29T05:35:31.853Z,96295.11
2023-03-29T05:38:00.852Z,96297.06
2023-03-29T05:40:29.730Z,96300.21
2023-03-29T05:43:21.050Z,96307.23
2023-03-29T05:45:49.610Z,96307.02
2023-03-29T05:48:18.535Z,96304.21
2023-03-29T05:50:48.740Z,96305.47
2023-03-29T05:53:17.624Z,96305.56
2023-03-29T05:55:46.838Z,96303.06
2023-03-29T05:58:18.162Z,96306.37
2023-03-29T06:00:49.646Z,96303.74
2023-03-29T06:03:27.868Z,96303.94
2023-03-29T06:06:00.634Z,96306.40
2023-03-29T06:08:30.668Z,96314.63
2023-03-29T06:11:19.809Z,96319.91
2023-03-29T06:14:08.272Z,96326.35
2023-03-29T06:16:42.793Z,96325.98
2023-03-29T06:19:13.540Z,96325.62
2023-03-29T06:21:42.715Z,96330.89
2023-03-29T06:24:13.562Z,96333.91
2023-03-29T06:26:46.701Z,96335.24
2023-03-29T06:29:16.832Z,96339.63
2023-03-29T06:31:48.321Z,96346.33
2023-03-29T06:34:38.565Z,96348.75
2023-03-29T06:37:49.608Z,96351.77
2023-03-29T06:40:39.891Z,96353.42
2023-03-29T06:43:08.397Z,96356.30
2023-03-29T06:47:29.549Z,96357.13
2023-03-29T06:51:32.830Z,96361.55
2023-03-29T06:56:06.180Z,96366.80
2023-03-29T07:00:41.074Z,96370.41
2023-03-29T07:05:15.314Z,96367.75
2023-03-29T07:08:45.306Z,96372.29
2023-03-29T07:12:22.525Z,96368.92
2023-03-29T07:16:20.093Z,96375.58
2023-03-29T07:19:15.410Z,96375.24
2023-03-29T07:22:56.567Z,96376.71
2023-03-29T07:27:06.842Z,96378.14
2023-03-29T07:30:39.213Z,96385.41
2023-03-29T07:34:34.143Z,96390.64
2023-03-29T07:38:18.008Z,96388.61
2023-03-29T07:41:08.984Z,96391.43
2023-03-29T07:44:48.853Z,96394.31
2023-03-29T07:47:23.782Z,96396.89
2023-03-29T07:49:55.053Z,96398.41
2023-03-29T07:52:30.660Z,96394.98
2023-03-29T07:56:38.256Z,96398.77
2023-03-29T08:00:34.010Z,96397.85
2023-03-29T08:04:25.982Z,96397.34
2023-03-29T08:08:26.191Z,96402.59
2023-03-29T08:12:23.793Z,96406.33
2023-03-29T08:16:17.138Z,96403.02
2023-03-29T08:20:08.959Z,96408.22
2023-03-29T08:23:41.147Z,96412.63
2023-03-29T08:26:32.731Z,96407.31
2023-03-29T08:30:01.538Z,96408.98
2023-03-29T08:33:58.090Z,96403.46
2023-03-29T08:38:01.580Z,96403.29
2023-03-29T08:41:52.822Z,96406.23
2023-03-29T08:44:58.605Z,96411.31
2023-03-29T08:48:34.043Z,96410.75
2023-03-29T08:52:26.777Z,96412.09
2023-03-29T08:56:08.869Z,96413.54
2023-03-29T09:00:31.985Z,96412.50
2023-03-29T09:04:20.379Z,96419.33
2023-03-29T09:07:33.315Z,96418.23
2023-03-29T09:10:42.412Z,96416.56
2023-03-29T09:13:37.868Z,96419.02
2023-03-29T09:17:33.344Z,96417.37
2023-03-29T09:21:16.594Z,96417.74
2023-03-29T09:25:38.343Z,96420.73
2023-03-29T09:28:58.071Z,96428.27
2023-03-29T09:31:43.845Z,96425.65
2023-03-29T09:34:23.254Z,96425.62
2023-03-29T09:37:12.723Z,96421.92
2023-03-29T09:40:46.244Z,96423.34
2023-03-29T09:44:30.367Z,96417.90
2023-03-29T09:48:29.236Z,96416.38
2023-03-29T09:52:19.256Z,96413.45
2023-03-29T09:56:48.846Z,96409.65
2023-03-29T09:59:59.908Z,96410.08
2023-03-29T10:03:34.302Z,96408.77
2023-03-29T10:08:04.013Z,96409.95
2023-03-29T10:11:35.748Z,96414.48
2023-03-29T10:14:57.306Z,96416.02
2023-03-29T10:18:30.597Z,96414.59
2023-03-29T10:21:42.687Z,96414.66
2023-03-29T10:25:16.017Z,96419.48
2023-03-29T10:28:17.738Z,96425.30
2023-03-29T10:31:27.966Z,96414.48
2023-03-29T10:34:57.679Z,96420.69
2023-03-29T10:38:06.676Z,96420.11
2023-03-29T10:41:04.747Z,96415.71
2023-03-29T10:44:16.257Z,96416.08
2023-03-29T10:48:09.637Z,96418.48
2023-03-29T10:51:30.691Z,96415.36
2023-03-29T10:54:46.765Z,96411.75
2023-03-29T10:58:44.179Z,96416.59
2023-03-29T11:02:19.275Z,96415.94
2023-03-29T11:05:21.224Z,96402.59
2023-03-29T11:08:49.784Z,96406.60
2023-03-29T11:12:31.545Z,96395.84
2023-03-29T11:16:07.097Z,96382.40
2023-03-29T11:19:06.891Z,96391.16
2023-03-29T11:22:06.074Z,96388.52
2023-03-29T11:25:24.461Z,96381.17
2023-03-29T11:28:06.344Z,96370.88
2023-03-29T11:31:17.288Z,96371.11
2023-03-29T11:35:01.375Z,96369.16
2023-03-29T11:38:27.794Z,96371.08
2023-03-29T11:41:49.615Z,96363.13
2023-03-29T11:45:20.631Z,96364.80
2023-03-29T11:49:52.558Z,96369.60
2023-03-29T11:54:15.236Z,96361.86
2023-03-29T11:57:16.266Z,96365.50
2023-03-29T12:00:59.908Z,96361.52
2023-03-29T12:05:16.665Z,96359.12
2023-03-29T12:08:48.916Z,96362.92
2023-03-29T12:12:30.781Z,96359.71
2023-03-29T12:16:21.596Z,96362.36
2023-03-29T12:19:43.644Z,96359.50
2023-03-29T12:23:32.478Z,96360.29
2023-03-29T12:27:17.515Z,96364.15
2023-03-29T12:30:49.758Z,96369.41
2023-03-29T12:34:40.469Z,96371.02
2023-03-29T12:38:54.047Z,96369.74
2023-03-29T12:42:46.809Z,96370.21
2023-03-29T12:46:01.340Z,96355.92
2023-03-29T12:48:54.983Z,96354.87
2023-03-29T12:51:48.499Z,96352.27
2023-03-29T12:55:32.946Z,96349.53
2023-03-29T12:58:51.257Z,96347.89
2023-03-29T13:01:46.734Z,96349.11
2023-03-29T13:04:52.031Z,96340.12
2023-03-29T13:08:25.577Z,96342.55
2023-03-29T13:12:24.977Z,96344.53
2023-03-29T13:15:40.323Z,96342.62
2023-03-29T13:18:36.151Z,96341.00
2023-03-29T13:21:52.172Z,96338.23
2023-03-29T13:24:58.043Z,96334.80
2023-03-29T13:28:37.768Z,96334.69
2023-03-29T13:32:41.814Z,96339.34
2023-03-29T13:36:39.593Z,96334.89
2023-03-29T13:40:50.993Z,96338.92
2023-03-29T13:44:58.022Z,96332.49
2023-03-29T13:49:12.817Z,96331.33
2023-03-29T13:53:21.724Z,96328.78
2023-03-29T13:57:23.104Z,96330.92
2023-03-29T14:00:18.341Z,96334.41
2023-03-29T14:03:53.230Z,96337.81
2023-03-29T14:06:53.915Z,96329.52
2023-03-29T14:10:06.543Z,96331.26
2023-03-29T14:13:05.066Z,96333.27
2023-03-29T14:16:04.463Z,96330.05
2023-03-29T14:18:37.456Z,96327.64
2023-03-29T14:21:06.503Z,96327.20
2023-03-29T14:23:38.651Z,96327.33
2023-03-29T14:26:50.614Z,96326.19
2023-03-29T14:30:19.465Z,96325.89
2023-03-29T14:33:47.228Z,96331.59
2023-03-29T14:37:16.423Z,96336.22
2023-03-29T14:40:28.881Z,96329.34
2023-03-29T14:44:11.428Z,96332.41
2023-03-29T14:46:45.966Z,96330.52
2023-03-29T14:49:17.455Z,96326.94
2023-03-29T14:51:47.546Z,96325.30
2023-03-29T14:54:27.134Z,96322.34
2023-03-29T14:56:56.347Z,96330.54
2023-03-29T14:59:36.636Z,96327.92
2023-03-29T15:02:21.919Z,96322.23
2023-03-29T15:05:05.103Z,96328.45
2023-03-29T15:07:55.747Z,96319.66
2023-03-29T15:10:43.005Z,96328.24
2023-03-29T15:14:12.775Z,96332.44
2023-03-29T15:17:26.994Z,96330.69
2023-03-29T15:20:58.065Z,96331.47
2023-03-29T15:24:27.427Z,96329.91
2023-03-29T15:28:02.080Z,96328.95
2023-03-29T15:31:24.547Z,96331.48
2023-03-29T15:35:01.581Z,96328.66
2023-03-29T15:37:30.739Z,96331.49
2023-03-29T15:39:59.044Z,96333.34
2023-03-29T15:42:27.185Z,96337.27
2023-03-29T15:44:56.513Z,96343.11
2023-03-29T15:47:24.605Z,96342.63
2023-03-29T15:49:53.058Z,96340.95
2023-03-29T15:52:21.818Z,96342.95
2023-03-29T15:54:49.961Z,96346.20
2023-03-29T15:58:18.974Z,96344.45
2023-03-29T16:01:11.490Z,96344.31
2023-03-29T16:03:40.305Z,96338.77
2023-03-29T16:06:32.199Z,96336.45
2023-03-29T16:09:11.972Z,96342.48
2023-03-29T16:11:50.794Z,96344.91
2023-03-29T16:14:24.729Z,96345.01
2023-03-29T16:17:57.380Z,96345.77
2023-03-29T16:21:32.295Z,96350.45
2023-03-29T16:24:20.241Z,96348.04
2023-03-29T16:27:48.004Z,96349.98
2023-03-29T16:30:25.372Z,96350.37
2023-03-29T16:33:13.047Z,96352.46
2023-03-29T16:36:06.311Z,96359.20
2023-03-29T16:39:17.987Z,96359.27
2023-03-29T16:42:07.878Z,96362.95
2023-03-29T16:44:36.523Z,96367.85
2023-03-29T16:47:13.087Z,96372.33
2023-03-29T16:49:45.931Z,96372.04
2023-03-29T16:52:14.692Z,96375.39
2023-03-29T16:54:44.051Z,96372.19
2023-03-29T16:57:32.043Z,96373.08
2023-03-29T17:00:08.196Z,96377.64
2023-03-29T17:03:37.426Z,96382.63
2023-03-29T17:06:44.742Z,96387.69
2023-03-29T17:09:18.144Z,96392.77
2023-03-29T17:11:47.286Z,96394.08
2023-03-29T17:14:22.025Z,96394.70
2023-03-29T17:16:53.123Z,96398.09
2023-03-29T17:19:22.861Z,96400.08
2023-03-29T17:21:51.835Z,96404.79
2023-03-29T17:24:20.732Z,96405.41
2023-03-29T17:26:49.872Z,96408.59
2023-03-29T17:29:18.517Z,96406.81
2023-03-29T17:31:49.484Z,96411.52
2023-03-29T17:34:21.332Z,96412.63
2023-03-29T17:36:53.884Z,96418.02
2023-03-29T17:39:44.324Z,96416.40
2023-03-29T17:42:16.067Z,96417.36
2023-03-29T17:44:52.159Z,96418.36
2023-03-29T17:48:06.592Z,96419.91
2023-03-29T17:50:35.609Z,96422.69
2023-03-29T17:53:04.388Z,96425.07
2023-03-29T17:55:32.578Z,96426.79
2023-03-29T17:58:01.727Z,96431.42
2023-03-29T18:00:32.616Z,96433.31
2023-03-29T18:03:01.114Z,96438.73
2023-03-29T18:05:30.401Z,96440.23
2023-03-29T18:07:59.212Z,96445.63
2023-03-29T18:10:27.843Z,96445.40
2023-03-29T18:12:56.202Z,96450.11
2023-03-29T18:15:24.475Z,96451.41
2023-03-29T18:17:52.672Z,96453.90
2023-03-29T18:20:21.594Z,96459.45
2023-03-29T18:22:49.778Z,96463.98
2023-03-29T18:25:18.538Z,96461.34
2023-03-29T18:27:49.564Z,96460.89
2023-03-29T18:30:17.884Z,96463.30
2023-03-29T18:32:47.835Z,96462.48
2023-03-29T18:35:16.093Z,96465.21
2023-03-29T18:37:44.363Z,96463.85
2023-03-29T18:40:13.878Z,96464.52
2023-03-29T18:42:42.546Z,96468.64
2023-03-29T18:45:11.445Z,96473.41
2023-03-29T18:47:39.480Z,96473.13
2023-03-29T18:50:10.299Z,96471.47
2023-03-29T18:52:38.510Z,96467.91
2023-03-29T18:55:07.576Z,96466.77
2023-03-29T18:57:36.027Z,96470.21
2023-03-29T19:00:10.591Z,96471.60
2023-03-29T19:02:42.648Z,96475.06
2023-03-29T19:05:57.204Z,96473.06
2023-03-29T19:08:32.160Z,96481.13
2023-03-29T19:11:23.597Z,96479.84
2023-03-29T19:14:17.471Z,96483.86
2023-03-29T19:17:08.449Z,96485.52
2023-03-29T19:19:44.672Z,96486.83
2023-03-29T19:22:31.243Z,96486.77
2023-03-29T19:25:19.456Z,96484.02
2023-03-29T19:27:48.915Z,96481.27
2023-03-29T19:30:18.435Z,96480.52
2023-03-29T19:32:47.004Z,96484.67
2023-03-29T19:35:15.923Z,96486.13
2023-03-29T19:37:44.648Z,96489.23
2023-03-29T19:40:14.076Z,96489.77
2023-03-29T19:42:42.245Z,96487.94
2023-03-29T19:45:10.862Z,96485.45
2023-03-29T19:47:40.779Z,96486.03
2023-03-29T19:50:09.525Z,96484.23
2023-03-29T19:52:37.788Z,96485.28
2023-03-29T19:55:07.710Z,96484.98
2023-03-29T19:57:37.364Z,96480.92
2023-03-29T20:00:14.417Z,96481.84
2023-03-29T20:02:43.257Z,96477.42
2023-03-29T20:05:12.588Z,96478.29
2023-03-29T20:07:41.854Z,96479.47
2023-03-29T20:10:11.125Z,96478.95
2023-03-29T20:12:39.451Z,96476.20
2023-03-29T20:15:09.134Z,96477.67
2023-03-29T20:17:40.981Z,96475.40
2023-03-29T20:20:11.220Z,96477.55
2023-03-29T20:22:42.361Z,96475.48
2023-03-29T20:25:10.564Z,96471.14
2023-03-29T20:27:40.932Z,96471.06
2023-03-29T20:30:10.909Z,96468.08
2023-03-29T20:32:39.158Z,96465.58
2023-03-29T20:35:08.976Z,96464.93
2023-03-29T20:37:38.172Z,96459.70
2023-03-29T20:40:08.792Z,96463.48
2023-03-29T20:43:18.372Z,96458.27
2023-03-29T20:45:53.994Z,96457.02
2023-03-29T20:48:24.471Z,96461.56
2023-03-29T20:50:55.567Z,96461.83
2023-03-29T20:53:25.289Z,96456.63
2023-03-29T20:55:54.335Z,96455.89
2023-03-29T20:58:22.805Z,96454.45
2023-03-29T21:00:51.256Z,96455.38
2023-03-29T21:03:20.406Z,96453.06
2023-03-29T21:05:54.529Z,96448.54
2023-03-29T21:08:28.696Z,96451.67
2023-03-29T21:10:57.141Z,96456.30
2023-03-29T21:13:26.023Z,96454.80
2023-03-29T21:15:56.088Z,96452.63
2023-03-29T21:18:30.354Z,96454.89
2023-03-29T21:20:59.191Z,96458.67
2023-03-29T21:23:27.698Z,96462.48
2023-03-29T21:25:56.261Z,96464.05
2023-03-29T21:28:25.300Z,96466.13
2023-03-29T21:30:53.952Z,96471.96
2023-03-29T21:33:42.993Z,96477.96
2023-03-29T21:36:32.269Z,96480.94
2023-03-29T21:39:01.239Z,96482.66
2023-03-29T21:41:30.810Z,96482.16
2023-03-29T21:43:59.621Z,96479.62
2023-03-29T21:46:28.506Z,96478.76
2023-03-29T21:48:57.562Z,96477.22
2023-03-29T21:51:28.409Z,96475.53
2023-03-29T21:53:57.389Z,96471.63
2023-03-29T21:56:26.406Z,96474.73
2023-03-29T21:58:55.002Z,96473.56
2023-03-29T22:01:23.480Z,96473.79
2023-03-29T22:03:52.168Z,96475.70
2023-03-29T22:06:21.532Z,96477.27
2023-03-29T22:08:53.148Z,96482.07
2023-03-29T22:11:23.432Z,96483.60
2023-03-29T22:13:52.583Z,96481.05
2023-03-29T22:16:22.275Z,96480.22
2023-03-29T22:18:52.902Z,96483.81
2023-03-29T22:21:31.290Z,96484.70
2023-03-29T22:24:01.454Z,96484.39
2023-03-29T22:26:32.322Z,96485.95
2023-03-29T22:29:02.067Z,96481.40
2023-03-29T22:31:33.096Z,96477.86
2023-03-29T22:34:02.960Z,96475.52
2023-03-29T22:36:32.553Z,96475.06
2023-03-29T22:39:01.003Z,96477.83
2023-03-29T22:41:29.933Z,96481.77
2023-03-29T22:44:02.253Z,96480.09
2023-03-29T22:46:31.546Z,96480.63
2023-03-29T22:49:00.467Z,96485.91
2023-03-29T22:51:29.311Z,96486.77
2023-03-29T22:53:59.520Z,96484.89
2023-03-29T22:56:28.798Z,96481.33
2023-03-29T22:58:58.370Z,96476.23
2023-03-29T23:01:27.710Z,96475.19
2023-03-29T23:04:56.722Z,96476.54
2023-03-29T23:09:25.618Z,96479.77
2023-03-29T23:13:35.850Z,96483.69
2023-03-29T23:18:04.935Z,96489.80
2023-03-29T23:21:06.362Z,96487.73
2023-03-29T23:23:36.430Z,96488.08
2023-03-29T23:26:06.711Z,96488.08
2023-03-29T23:28:35.774Z,96488.08
2023-03-29T23:31:10.645Z,96487.75
2023-03-29T23:33:42.936Z,96483.00
2023-03-29T23:36:16.844Z,96479.80
2023-03-29T23:38:46.896Z,96485.08
2023-03-29T23:41:16.997Z,96486.45
2023-03-29T23:43:47.547Z,96485.11
2023-03-29T23:46:19.080Z,96487.83
2023-03-29T23:49:06.245Z,96488.02
2023-03-29T23:51:37.017Z,96485.98
2023-03-29T23:54:06.548Z,96484.14
2023-03-29T23:56:35.769Z,96479.23
2023-03-29T23:59:06.005Z,96477.74
